Time;durP1;ratioP1;P1;durP2;ratioP2;P2;SDS_P1;SDS_P2;PMS_P1;PMS_P2;Temp;Humidity;BMP_temperature;BMP_pressure;BME280_temperature;BME280_humidity;BME280_pressure;Samples;Min_cycle;Max_cycle;Signal;HPM_P1;HPM_P2
2021/09/04 00:00:34;;;;;;;;;;;;;;;20.33;65.12;101732.47;5014523;28;1775;-67
2021/09/04 00:02:59;;;;;;;;;;;;;;;20.32;65.08;101728.91;5014820;28;1034;-67
2021/09/04 00:05:24;;;;;;;;;;;;;;;20.28;63.61;101738.31;5014645;28;910;-68
2021/09/04 00:07:49;;;;;;;;;;;;;;;20.31;64.79;101729.06;5014626;28;1913;-68
2021/09/04 00:10:14;;;;;;;;;;;;;;;20.32;64.74;101722.66;5014360;28;1847;-66
2021/09/04 00:12:39;;;;;;;;;;;;;;;20.30;64.89;101722.78;5014117;28;1505;-66
2021/09/04 00:15:04;;;;;;;;;;;;;;;20.28;64.04;101721.22;5014578;28;1090;-66
2021/09/04 00:17:29;;;;;;;;;;;;;;;20.19;63.55;101719.38;5014771;28;969;-66
2021/09/04 00:19:55;;;;;;;;;;;;;;;20.25;63.73;101708.81;5014480;28;1855;-64
2021/09/04 00:22:20;;;;;;;;;;;;;;;20.25;64.61;101713.38;5014479;28;1073;-66
2021/09/04 00:24:45;;;;;;;;;;;;;;;20.26;64.52;101710.53;5014482;28;930;-68
2021/09/04 00:27:10;;;;;;;;;;;;;;;20.21;64.40;101709.25;5014474;28;954;-67
2021/09/04 00:29:35;;;;;;;;;;;;;;;20.19;63.22;101709.41;5017979;28;1894;-67
2021/09/04 00:32:00;;;;;;;;;;;;;;;20.21;64.14;101712.81;5017931;28;1936;-67
2021/09/04 00:34:25;;;;;;;;;;;;;;;20.21;64.30;101723.66;5018148;28;863;-67
2021/09/04 00:36:50;;;;;;;;;;;;;;;20.19;64.33;101720.22;5018047;28;799;-67
2021/09/04 00:39:15;;;;;;;;;;;;;;;20.20;64.45;101721.06;5018212;28;902;-68
2021/09/04 00:41:40;;;;;;;;;;;;;;;20.18;64.33;101710.38;5017500;28;1947;-67
2021/09/04 00:44:05;;;;;;;;;;;;;;;20.19;64.80;101724.78;5018370;28;854;-67
2021/09/04 00:46:31;;;;;;;;;;;;;;;20.18;63.91;101715.81;5018095;28;993;-67
2021/09/04 00:48:56;;;;;;;;;;;;;;;20.18;64.38;101714.94;5018057;28;1898;-67
2021/09/04 00:51:21;;;;;;;;;;;;;;;20.18;64.30;101718.50;5017463;28;1950;-67
2021/09/04 00:53:46;;;;;;;;;;;;;;;20.16;64.03;101716.94;5017756;28;882;-67
2021/09/04 00:56:11;;;;;;;;;;;;;;;20.16;64.04;101712.38;5017667;28;800;-67
2021/09/04 00:58:36;;;;;;;;;;;;;;;20.15;63.77;101712.50;5017509;28;804;-65
2021/09/04 01:01:01;;;;;;;;;;;;;;;20.14;63.92;101714.38;5017377;28;1833;-66
2021/09/04 01:03:26;;;;;;;;;;;;;;;20.11;63.56;101711.94;5017719;28;914;-66
2021/09/04 01:05:51;;;;;;;;;;;;;;;20.10;63.72;101719.19;5017541;28;824;-65
2021/09/04 01:08:16;;;;;;;;;;;;;;;20.12;63.50;101719.06;5017308;28;1914;-66
2021/09/04 01:10:41;;;;;;;;;;;;;;;20.14;63.30;101713.50;5015993;28;1853;-67
2021/09/04 01:13:07;;;;;;;;;;;;;;;20.13;63.89;101706.38;5017160;28;918;-67
2021/09/04 01:15:32;;;;;;;;;;;;;;;20.09;64.06;101708.50;5017369;28;1036;-67
2021/09/04 01:17:57;;;;;;;;;;;;;;;20.08;63.47;101709.50;5017227;28;1080;-67
2021/09/04 01:20:22;;;;;;;;;;;;;;;20.07;62.86;101713.19;5017139;28;1886;-67
2021/09/04 01:22:47;;;;;;;;;;;;;;;20.08;62.89;101712.22;5016813;28;1803;-66
2021/09/04 01:25:12;;;;;;;;;;;;;;;20.09;64.17;101708.50;5016775;28;1541;-67
2021/09/04 01:27:37;;;;;;;;;;;;;;;20.06;64.53;101708.81;5017118;28;994;-67
2021/09/04 01:30:02;;;;;;;;;;;;;;;20.04;63.86;101708.09;5016517;28;1889;-67
2021/09/04 01:32:27;;;;;;;;;;;;;;;20.04;63.61;101711.66;5017268;28;843;-66
2021/09/04 01:34:53;;;;;;;;;;;;;;;20.03;64.18;101711.78;5016772;28;1828;-67
2021/09/04 01:37:18;;;;;;;;;;;;;;;20.04;62.77;101717.06;5017267;28;947;-67
2021/09/04 01:39:43;;;;;;;;;;;;;;;20.03;63.43;101712.66;5016519;28;1755;-67
2021/09/04 01:42:08;;;;;;;;;;;;;;;20.03;64.01;101717.22;5016800;28;803;-68
2021/09/04 01:44:33;;;;;;;;;;;;;;;20.01;63.89;101701.09;5016698;28;1053;-68
2021/09/04 01:46:58;;;;;;;;;;;;;;;20.01;63.14;101711.06;5016796;28;799;-68
2021/09/04 01:49:23;;;;;;;;;;;;;;;19.99;63.60;101707.66;5016598;28;1895;-67
2021/09/04 01:51:48;;;;;;;;;;;;;;;19.99;62.84;101704.94;5016714;28;1009;-68
2021/09/04 01:54:14;;;;;;;;;;;;;;;19.98;63.29;101706.78;5016641;28;796;-63
2021/09/04 01:56:39;;;;;;;;;;;;;;;19.97;64.10;101704.22;5016440;28;832;-63
2021/09/04 01:59:04;;;;;;;;;;;;;;;19.97;62.94;101694.25;5016339;28;1679;-62
2021/09/04 02:01:29;;;;;;;;;;;;;;;19.97;63.05;101699.66;5015187;28;1208;-62
2021/09/04 02:03:54;;;;;;;;;;;;;;;19.96;63.38;101697.09;5016543;28;832;-63
2021/09/04 02:06:19;;;;;;;;;;;;;;;19.95;63.22;101700.81;5016282;28;780;-62
2021/09/04 02:08:44;;;;;;;;;;;;;;;19.95;63.61;101698.94;5016220;28;1914;-64
2021/09/04 02:11:09;;;;;;;;;;;;;;;19.93;63.44;101703.63;5016163;28;840;-64
2021/09/04 02:13:34;;;;;;;;;;;;;;;19.94;63.54;101691.81;5016011;28;1010;-66
2021/09/04 02:15:59;;;;;;;;;;;;;;;19.94;63.47;101685.56;5016658;28;1017;-67
2021/09/04 02:18:25;;;;;;;;;;;;;;;19.92;63.41;101691.09;5015865;28;1758;-67
2021/09/04 02:20:50;;;;;;;;;;;;;;;19.93;62.59;101691.97;5016270;28;870;-68
2021/09/04 02:23:15;;;;;;;;;;;;;;;19.89;63.07;101683.25;5016146;28;1045;-69
2021/09/04 02:25:40;;;;;;;;;;;;;;;19.88;63.14;101691.56;5016088;28;824;-67
2021/09/04 02:28:05;;;;;;;;;;;;;;;19.86;63.13;101680.00;5015715;28;1937;-67
2021/09/04 02:30:30;;;;;;;;;;;;;;;19.87;62.96;101687.13;5015762;28;1777;-67
2021/09/04 02:32:55;;;;;;;;;;;;;;;19.86;62.94;101680.00;5016078;28;815;-66
2021/09/04 02:35:20;;;;;;;;;;;;;;;19.86;63.31;101680.00;5016007;28;890;-67
2021/09/04 02:37:45;;;;;;;;;;;;;;;19.87;63.89;101684.44;5014316;28;1802;-66
2021/09/04 02:40:11;;;;;;;;;;;;;;;19.75;62.85;101672.84;5015862;28;1099;-67
2021/09/04 02:42:36;;;;;;;;;;;;;;;19.75;62.62;101681.81;5015591;28;1202;-68
2021/09/04 02:45:01;;;;;;;;;;;;;;;19.79;62.58;101682.41;5015610;28;1018;-67
2021/09/04 02:47:26;;;;;;;;;;;;;;;19.76;63.02;101685.38;5015755;28;1760;-67
2021/09/04 02:49:51;;;;;;;;;;;;;;;19.80;62.66;101678.72;5015478;28;1898;-67
2021/09/04 02:52:16;;;;;;;;;;;;;;;19.80;63.39;101672.44;5015183;28;819;-67
2021/09/04 02:54:41;;;;;;;;;;;;;;;19.80;63.75;101677.84;5014144;28;910;-67
2021/09/04 02:57:07;;;;;;;;;;;;;;;19.74;63.06;101673.84;5015730;28;1797;-67
2021/09/04 02:59:32;;;;;;;;;;;;;;;19.76;62.98;101674.56;5015421;28;1402;-65
2021/09/04 03:01:57;;;;;;;;;;;;;;;19.74;63.12;101672.00;5015617;28;855;-64
2021/09/04 03:04:22;;;;;;;;;;;;;;;19.69;62.44;101663.47;5015519;28;1061;-64
2021/09/04 03:06:47;;;;;;;;;;;;;;;19.68;62.40;101664.47;5015145;28;1792;-64
2021/09/04 03:09:12;;;;;;;;;;;;;;;19.69;62.65;101668.88;5015238;28;1918;-65
2021/09/04 03:11:37;;;;;;;;;;;;;;;19.68;62.13;101667.16;5015174;28;1010;-64
2021/09/04 03:14:02;;;;;;;;;;;;;;;19.67;62.83;101670.00;5015186;28;938;-64
2021/09/04 03:16:27;;;;;;;;;;;;;;;19.53;62.53;101673.91;5014966;28;1781;-65
2021/09/04 03:18:53;;;;;;;;;;;;;;;19.55;62.32;101677.34;5015482;28;1014;-65
2021/09/04 03:21:18;;;;;;;;;;;;;;;19.56;62.50;101679.06;5015304;28;958;-64
2021/09/04 03:23:43;;;;;;;;;;;;;;;19.61;62.65;101666.00;5014977;28;839;-65
2021/09/04 03:26:08;;;;;;;;;;;;;;;19.63;61.84;101674.81;5015060;28;1793;-65
2021/09/04 03:28:33;;;;;;;;;;;;;;;19.59;63.04;101675.22;5014932;28;1895;-65
2021/09/04 03:30:58;;;;;;;;;;;;;;;19.61;62.41;101668.69;5014786;28;1006;-65
2021/09/04 03:33:23;;;;;;;;;;;;;;;19.57;62.30;101675.34;5015228;28;961;-65
2021/09/04 03:35:48;;;;;;;;;;;;;;;19.51;62.79;101670.53;5014809;28;1790;-65
2021/09/04 03:38:13;;;;;;;;;;;;;;;19.41;62.76;101677.69;5014663;28;1839;-65
2021/09/04 03:40:38;;;;;;;;;;;;;;;19.45;63.04;101672.88;5014918;28;1010;-65
2021/09/04 03:43:03;;;;;;;;;;;;;;;19.54;62.64;101675.63;5014984;28;902;-65
2021/09/04 03:45:28;;;;;;;;;;;;;;;19.55;62.16;101677.34;5014516;28;1854;-65
2021/09/04 03:47:53;;;;;;;;;;;;;;;19.59;62.34;101677.94;5014812;28;1902;-66
2021/09/04 03:50:19;;;;;;;;;;;;;;;19.55;62.60;101671.94;5015190;28;911;-66
2021/09/04 03:52:44;;;;;;;;;;;;;;;19.52;62.21;101672.25;5014824;28;803;-65
2021/09/04 03:55:09;;;;;;;;;;;;;;;19.51;62.54;101678.63;5014664;28;1789;-64
2021/09/04 03:57:35;;;;;;;;;;;;;;;19.54;62.15;101675.63;5014720;28;1128;-65
2021/09/04 04:00:00;;;;;;;;;;;;;;;19.56;62.63;101679.06;5014527;28;1125;-65
2021/09/04 04:02:25;;;;;;;;;;;;;;;19.51;62.87;101675.06;5014986;28;917;-64
2021/09/04 04:04:50;;;;;;;;;;;;;;;19.48;62.91;101675.31;5018295;28;1686;-65
2021/09/04 04:07:15;;;;;;;;;;;;;;;19.46;62.95;101677.28;5015083;28;1555;-64
2021/09/04 04:09:40;;;;;;;;;;;;;;;19.45;62.88;101676.44;5018668;28;1898;-65
2021/09/04 04:12:05;;;;;;;;;;;;;;;19.46;62.21;101678.16;5018531;28;843;-65
2021/09/04 04:14:30;;;;;;;;;;;;;;;19.43;63.15;101681.13;5018384;28;1779;-65
2021/09/04 04:16:55;;;;;;;;;;;;;;;19.48;62.36;101673.47;5018353;28;1014;-65
2021/09/04 04:19:20;;;;;;;;;;;;;;;19.46;62.60;101678.16;5018648;28;970;-64
2021/09/04 04:21:46;;;;;;;;;;;;;;;19.48;62.39;101681.56;5018574;28;997;-63
2021/09/04 04:24:11;;;;;;;;;;;;;;;19.47;62.81;101682.56;5018209;28;1793;-63
2021/09/04 04:26:36;;;;;;;;;;;;;;;19.50;62.58;101679.63;5018217;28;1014;-63
2021/09/04 04:29:01;;;;;;;;;;;;;;;19.50;63.04;101679.63;5018299;28;1898;-63
2021/09/04 04:31:26;;;;;;;;;;;;;;;19.51;62.63;101675.94;5018010;28;982;-62
2021/09/04 04:33:51;;;;;;;;;;;;;;;19.51;62.69;101680.47;5017577;28;1930;-72
2021/09/04 04:36:16;;;;;;;;;;;;;;;19.50;62.83;101685.03;5018491;28;879;-71
2021/09/04 04:38:41;;;;;;;;;;;;;;;19.48;63.39;101683.41;5016940;28;1215;-69
2021/09/04 04:41:06;;;;;;;;;;;;;;;19.46;62.72;101680.84;5017380;28;1352;-68
2021/09/04 04:43:31;;;;;;;;;;;;;;;19.46;63.54;101685.41;5017328;28;1623;-68
2021/09/04 04:45:56;;;;;;;;;;;;;;;19.50;63.22;101684.19;5015926;28;2093;-68
2021/09/04 04:48:21;;;;;;;;;;;;;;;19.46;62.94;101688.09;5016464;28;1953;-68
2021/09/04 04:50:46;;;;;;;;;;;;;;;19.36;63.30;101682.63;5016541;28;1346;-68
2021/09/04 04:53:12;;;;;;;;;;;;;;;19.43;63.07;101689.22;5016357;28;1607;-68
2021/09/04 04:55:37;;;;;;;;;;;;;;;19.42;62.71;101684.81;5016458;28;1353;-68
2021/09/04 04:58:02;;;;;;;;;;;;;;;19.41;62.67;101693.91;5016025;28;1618;-68
2021/09/04 05:00:27;;;;;;;;;;;;;;;19.41;62.54;101688.50;5016151;28;1637;-69
2021/09/04 05:02:52;;;;;;;;;;;;;;;19.40;62.14;101692.19;5016308;28;1393;-69
2021/09/04 05:05:17;;;;;;;;;;;;;;;19.31;62.60;101690.31;5016166;28;1511;-68
2021/09/04 05:07:42;;;;;;;;;;;;;;;19.30;62.19;101688.63;5016035;28;1329;-63
2021/09/04 05:10:07;;;;;;;;;;;;;;;19.33;62.35;101691.91;5014139;28;1910;-62
2021/09/04 05:12:32;;;;;;;;;;;;;;;19.33;62.77;101691.06;5016786;28;1405;-65
2021/09/04 05:14:57;;;;;;;;;;;;;;;19.29;62.21;101695.00;5015593;28;2544;-67
2021/09/04 05:17:23;;;;;;;;;;;;;;;19.40;65.46;101695.75;5018009;28;1018;-66
2021/09/04 05:19:48;;;;;;;;;;;;;;;19.58;68.03;101692.44;5017351;28;1937;-65
2021/09/04 05:22:13;;;;;;;;;;;;;;;19.65;64.08;101682.81;5017328;28;1708;-65
2021/09/04 05:24:38;;;;;;;;;;;;;;;19.58;66.52;101690.59;5016731;28;1230;-64
2021/09/04 05:27:03;;;;;;;;;;;;;;;19.50;66.60;101690.44;5016817;28;1315;-64
2021/09/04 05:29:30;;;;;;;;;;;;;;;19.44;66.69;101696.34;5017284;28;1941;-64
2021/09/04 05:31:55;;;;;;;;;;;;;;;19.47;66.21;101696.09;5015434;28;1689;-64
2021/09/04 05:34:20;;;;;;;;;;;;;;;19.43;65.92;101694.63;5016446;28;1889;-64
2021/09/04 05:36:45;;;;;;;;;;;;;;;19.48;65.81;101694.22;5016639;28;1721;-64
2021/09/04 05:39:10;;;;;;;;;;;;;;;19.50;65.23;101695.00;5015609;28;1714;-64
2021/09/04 05:41:35;;;;;;;;;;;;;;;19.45;65.33;101689.94;5016050;28;1721;-64
2021/09/04 05:44:00;;;;;;;;;;;;;;;19.35;64.51;101686.34;5014434;28;1471;-64
2021/09/04 05:46:25;;;;;;;;;;;;;;;19.30;65.37;101684.06;5016159;28;1414;-64
2021/09/04 05:48:50;;;;;;;;;;;;;;;19.24;65.05;101689.16;5016008;28;1890;-64
2021/09/04 05:51:15;;;;;;;;;;;;;;;19.29;64.25;101692.31;5015643;28;1811;-64
2021/09/04 05:53:42;;;;;;;;;;;;;;;19.39;64.65;101687.78;5014685;28;1407;-64
2021/09/04 05:56:07;;;;;;;;;;;;;;;19.46;64.73;101697.06;5017089;28;854;-64
2021/09/04 05:58:32;;;;;;;;;;;;;;;19.39;63.77;101687.78;5016816;28;1883;-64
2021/09/04 06:00:57;;;;;;;;;;;;;;;19.34;64.06;101690.06;5015822;28;1478;-64
2021/09/04 06:03:23;;;;;;;;;;;;;;;19.41;64.60;101692.06;5016617;28;918;-63
2021/09/04 06:05:48;;;;;;;;;;;;;;;19.32;64.40;101683.94;5016789;28;843;-63
2021/09/04 06:08:13;;;;;;;;;;;;;;;19.28;63.84;101685.19;5016839;28;1960;-63
2021/09/04 06:10:38;;;;;;;;;;;;;;;19.34;63.92;101685.50;5016469;28;1750;-64
2021/09/04 06:13:03;;;;;;;;;;;;;;;19.40;64.41;101690.34;5016924;28;975;-66
2021/09/04 06:15:28;;;;;;;;;;;;;;;19.43;63.75;101691.94;5016719;28;1135;-65
2021/09/04 06:17:53;;;;;;;;;;;;;;;19.42;64.33;101687.50;5016651;28;1934;-66
2021/09/04 06:20:18;;;;;;;;;;;;;;;19.43;64.33;101692.78;5016858;28;1807;-66
2021/09/04 06:22:43;;;;;;;;;;;;;;;19.45;64.74;101700.75;5017084;28;1069;-65
2021/09/04 06:25:08;;;;;;;;;;;;;;;19.46;64.59;101712.44;5015575;28;855;-65
2021/09/04 06:27:33;;;;;;;;;;;;;;;19.39;64.90;101699.44;5016046;28;1961;-65
2021/09/04 06:29:58;;;;;;;;;;;;;;;19.41;64.61;101712.84;5016482;28;1979;-65
2021/09/04 06:32:25;;;;;;;;;;;;;;;19.45;64.60;101713.44;5016008;28;989;-65
2021/09/04 06:34:50;;;;;;;;;;;;;;;19.34;64.01;101717.09;5016248;28;760;-65
2021/09/04 06:37:15;;;;;;;;;;;;;;;19.29;64.02;101713.94;5015656;28;1782;-65
2021/09/04 06:39:40;;;;;;;;;;;;;;;19.15;63.75;101715.16;5015816;28;939;-66
2021/09/04 06:42:05;;;;;;;;;;;;;;;19.13;64.08;101709.00;5015958;28;1050;-65
2021/09/04 06:44:30;;;;;;;;;;;;;;;19.06;63.34;101705.97;5015984;28;986;-66
2021/09/04 06:46:55;;;;;;;;;;;;;;;19.12;63.58;101711.84;5015326;28;1714;-65
2021/09/04 06:49:20;;;;;;;;;;;;;;;19.10;62.68;101716.53;5014449;28;1898;-65
2021/09/04 06:51:46;;;;;;;;;;;;;;;19.09;63.26;101704.84;5015920;28;1065;-65
2021/09/04 06:54:11;;;;;;;;;;;;;;;19.14;63.35;101705.31;5015749;28;958;-66
2021/09/04 06:56:36;;;;;;;;;;;;;;;19.20;62.88;101712.88;5015261;28;1819;-65
2021/09/04 06:59:01;;;;;;;;;;;;;;;19.25;62.41;101707.94;5010810;28;1589;-65
2021/09/04 07:01:26;;;;;;;;;;;;;;;19.26;63.07;101706.09;4994935;28;1331;-65
2021/09/04 07:03:51;;;;;;;;;;;;;;;19.26;62.47;101711.50;4995736;28;994;-64
2021/09/04 07:06:16;;;;;;;;;;;;;;;19.28;62.50;101706.81;4995746;28;1025;-66
2021/09/04 07:08:41;;;;;;;;;;;;;;;19.10;62.28;101711.97;5015141;28;1967;-65
2021/09/04 07:11:06;;;;;;;;;;;;;;;19.03;62.65;101708.09;5014940;28;1760;-64
2021/09/04 07:13:31;;;;;;;;;;;;;;;19.17;62.62;101709.59;5015203;28;1052;-66
2021/09/04 07:15:57;;;;;;;;;;;;;;;19.20;62.27;101710.16;5015453;28;887;-66
2021/09/04 07:18:22;;;;;;;;;;;;;;;19.19;62.01;101715.69;5014945;28;1902;-66
2021/09/04 07:20:47;;;;;;;;;;;;;;;19.12;62.39;101717.25;5015211;28;998;-65
2021/09/04 07:23:12;;;;;;;;;;;;;;;19.17;62.22;101712.31;5015203;28;1111;-65
2021/09/04 07:25:37;;;;;;;;;;;;;;;19.11;62.19;101708.28;5015184;28;1049;-64
2021/09/04 07:28:04;;;;;;;;;;;;;;;19.01;62.11;101712.75;5014807;28;1906;-65
2021/09/04 07:30:29;;;;;;;;;;;;;;;18.97;62.16;101701.38;5015204;28;824;-65
2021/09/04 07:32:54;;;;;;;;;;;;;;;19.09;62.46;101712.97;5014863;28;914;-65
2021/09/04 07:35:20;;;;;;;;;;;;;;;19.12;62.59;101706.44;5014697;28;1819;-65
2021/09/04 07:37:45;;;;;;;;;;;;;;;19.16;62.10;101713.28;5014631;28;1061;-65
2021/09/04 07:40:10;;;;;;;;;;;;;;;19.19;62.11;101707.59;5015009;28;978;-64
2021/09/04 07:42:35;;;;;;;;;;;;;;;19.08;61.98;101714.81;5014943;28;926;-65
2021/09/04 07:45:00;;;;;;;;;;;;;;;18.96;62.30;101710.47;5014494;28;1678;-65
2021/09/04 07:47:25;;;;;;;;;;;;;;;18.94;61.55;101708.91;5014513;28;1742;-65
2021/09/04 07:49:50;;;;;;;;;;;;;;;19.06;61.63;101714.09;5014750;28;1902;-65
2021/09/04 07:52:15;;;;;;;;;;;;;;;19.00;61.54;101714.59;5014786;28;831;-65
2021/09/04 07:54:40;;;;;;;;;;;;;;;18.95;61.71;101711.47;5014837;28;1902;-65
2021/09/04 07:57:05;;;;;;;;;;;;;;;18.81;62.16;101719.88;5014724;28;970;-65
2021/09/04 07:59:30;;;;;;;;;;;;;;;18.81;61.40;101717.19;5014791;28;1105;-65
2021/09/04 08:01:56;;;;;;;;;;;;;;;18.68;62.08;101713.81;5014724;28;871;-65
2021/09/04 08:04:21;;;;;;;;;;;;;;;18.61;62.03;101720.75;5014880;28;1830;-65
2021/09/04 08:06:47;;;;;;;;;;;;;;;18.67;61.87;101720.22;5014995;28;2066;-65
2021/09/04 08:09:12;;;;;;;;;;;;;;;18.55;61.77;101713.13;5015044;28;1970;-65
2021/09/04 08:11:37;;;;;;;;;;;;;;;18.56;61.68;101717.53;5014840;28;1017;-65
2021/09/04 08:14:02;;;;;;;;;;;;;;;18.66;61.66;101718.50;5014753;28;1735;-65
2021/09/04 08:16:27;;;;;;;;;;;;;;;18.69;61.86;101712.84;5014400;28;846;-66
2021/09/04 08:18:52;;;;;;;;;;;;;;;18.83;62.06;101720.59;5014295;28;989;-66
2021/09/04 08:21:17;;;;;;;;;;;;;;;18.60;61.46;101722.59;5014915;28;969;-65
2021/09/04 08:23:43;;;;;;;;;;;;;;;18.59;61.66;101718.19;5014085;28;1596;-65
2021/09/04 08:26:08;;;;;;;;;;;;;;;18.74;60.98;101716.00;5014384;28;1017;-66
2021/09/04 08:28:33;;;;;;;;;;;;;;;18.80;61.42;101718.19;5014335;28;1894;-65
2021/09/04 08:30:58;;;;;;;;;;;;;;;18.91;61.31;101725.38;5014480;28;859;-66
2021/09/04 08:33:23;;;;;;;;;;;;;;;18.86;61.02;101725.75;5013945;28;1774;-65
2021/09/04 08:35:48;;;;;;;;;;;;;;;18.83;60.85;101728.72;5014344;28;946;-65
2021/09/04 08:38:13;;;;;;;;;;;;;;;18.67;61.58;101725.59;5014359;28;1009;-65
2021/09/04 08:40:38;;;;;;;;;;;;;;;18.66;61.30;101729.28;5014216;28;1061;-64
2021/09/04 08:43:03;;;;;;;;;;;;;;;18.66;61.82;101729.28;5014579;28;1938;-65
2021/09/04 08:45:28;;;;;;;;;;;;;;;18.79;61.09;101738.09;5014389;28;808;-66
2021/09/04 08:47:53;;;;;;;;;;;;;;;18.75;61.71;101733.06;5014159;28;796;-65
2021/09/04 08:50:19;;;;;;;;;;;;;;;18.82;61.04;101737.78;5017200;28;1948;-65
2021/09/04 08:52:44;;;;;;;;;;;;;;;18.93;60.71;101740.44;5017880;28;1069;-65
2021/09/04 08:55:09;;;;;;;;;;;;;;;18.89;61.43;101744.41;5017659;28;1863;-65
2021/09/04 08:57:34;;;;;;;;;;;;;;;18.90;61.07;101735.31;5017512;28;986;-65
2021/09/04 08:59:59;;;;;;;;;;;;;;;18.94;61.34;101739.47;5017278;28;1375;-65
2021/09/04 09:02:24;;;;;;;;;;;;;;;18.82;61.14;101747.75;5017967;28;827;-65
2021/09/04 09:04:49;;;;;;;;;;;;;;;18.87;61.25;101740.97;5017103;28;1881;-65
2021/09/04 09:07:14;;;;;;;;;;;;;;;18.83;61.34;101744.91;5017065;28;1958;-64
2021/09/04 09:09:39;;;;;;;;;;;;;;;18.87;61.10;101750.91;5017333;28;1977;-65
2021/09/04 09:12:04;;;;;;;;;;;;;;;18.87;61.36;101746.38;5017604;28;954;-65
2021/09/04 09:14:31;;;;;;;;;;;;;;;18.84;61.49;101745.78;5017693;28;1669;-65
2021/09/04 09:16:56;;;;;;;;;;;;;;;18.71;61.64;101744.13;5016772;28;1261;-65
2021/09/04 09:19:21;;;;;;;;;;;;;;;18.79;61.12;101751.59;5016085;28;1279;-65
2021/09/04 09:21:46;;;;;;;;;;;;;;;18.89;61.50;101757.91;5016908;28;2048;-65
2021/09/04 09:24:11;;;;;;;;;;;;;;;18.93;60.72;101745.84;5016989;28;1760;-65
2021/09/04 09:26:36;;;;;;;;;;;;;;;18.96;61.22;101750.13;5016910;28;1459;-65
2021/09/04 09:29:01;;;;;;;;;;;;;;;18.98;60.70;101749.03;5016884;28;1886;-65
2021/09/04 09:31:26;;;;;;;;;;;;;;;18.97;61.26;101757.25;5016912;28;962;-65
2021/09/04 09:33:52;;;;;;;;;;;;;;;18.86;61.51;101747.34;5016910;28;990;-64
2021/09/04 09:36:17;;;;;;;;;;;;;;;18.91;61.81;101747.81;5016959;28;795;-65
2021/09/04 09:38:42;;;;;;;;;;;;;;;19.00;60.91;101760.53;5016788;28;803;-65
2021/09/04 09:41:07;;;;;;;;;;;;;;;18.98;61.73;101756.28;5016966;28;955;-65
2021/09/04 09:43:33;;;;;;;;;;;;;;;18.89;61.17;101743.53;5016722;28;859;-65
2021/09/04 09:45:58;;;;;;;;;;;;;;;18.88;61.27;101753.50;5016806;28;823;-65
2021/09/04 09:48:23;;;;;;;;;;;;;;;18.88;61.78;101745.38;5016518;28;1894;-65
2021/09/04 09:50:48;;;;;;;;;;;;;;;18.96;61.06;101739.34;5016930;28;907;-65
2021/09/04 09:53:13;;;;;;;;;;;;;;;18.92;60.75;101733.34;5016816;28;895;-64
2021/09/04 09:55:39;;;;;;;;;;;;;;;18.96;60.72;101737.50;5017515;28;810;-64
2021/09/04 09:58:04;;;;;;;;;;;;;;;19.00;61.30;101732.66;5017248;28;831;-65
2021/09/04 10:00:29;;;;;;;;;;;;;;;19.00;61.09;101724.56;5015421;28;1198;-65
2021/09/04 10:02:54;;;;;;;;;;;;;;;18.90;61.45;101729.91;5016317;28;1641;-65
2021/09/04 10:05:19;;;;;;;;;;;;;;;18.79;61.44;101726.41;5016324;28;873;-65
2021/09/04 10:07:47;;;;;;;;;;;;;;;18.85;61.40;101725.88;5016220;28;843;-65
2021/09/04 10:10:12;;;;;;;;;;;;;;;18.87;61.04;101724.75;5016105;28;1973;-65
2021/09/04 10:12:37;;;;;;;;;;;;;;;18.92;61.33;101714.44;5016300;28;1882;-65
2021/09/04 10:15:02;;;;;;;;;;;;;;;18.89;60.67;101728.19;5016402;28;1646;-65
2021/09/04 10:17:27;;;;;;;;;;;;;;;18.83;61.14;101722.44;5016141;28;1038;-65
2021/09/04 10:19:52;;;;;;;;;;;;;;;18.85;61.15;101726.72;5016080;28;953;-65
2021/09/04 10:22:17;;;;;;;;;;;;;;;18.85;61.18;101721.34;5016041;28;1602;-64
2021/09/04 10:24:42;;;;;;;;;;;;;;;18.93;60.79;101724.25;5016147;28;1045;-65
2021/09/04 10:27:07;;;;;;;;;;;;;;;19.01;61.22;101715.47;5016033;28;1025;-65
2021/09/04 10:29:32;;;;;;;;;;;;;;;18.91;61.30;101715.41;5015974;28;1910;-65
2021/09/04 10:31:57;;;;;;;;;;;;;;;18.87;60.66;101719.34;5015815;28;1611;-65
2021/09/04 10:34:23;;;;;;;;;;;;;;;18.87;60.88;101702.31;5016104;28;854;-65
2021/09/04 10:36:48;;;;;;;;;;;;;;;18.94;61.25;101708.91;5016119;28;1068;-65
2021/09/04 10:39:13;;;;;;;;;;;;;;;18.82;61.56;101696.44;5015339;28;1802;-65
2021/09/04 10:41:38;;;;;;;;;;;;;;;18.71;61.26;101695.53;5015665;28;1763;-65
2021/09/04 10:44:05;;;;;;;;;;;;;;;18.66;60.92;101689.66;5015835;28;1001;-65
2021/09/04 10:46:30;;;;;;;;;;;;;;;18.64;60.99;101690.75;5016033;28;791;-65
2021/09/04 10:48:55;;;;;;;;;;;;;;;18.59;61.47;101696.56;5015229;28;1914;-65
2021/09/04 10:51:20;;;;;;;;;;;;;;;18.63;60.79;101691.78;5015809;28;776;-65
2021/09/04 10:53:45;;;;;;;;;;;;;;;18.53;60.92;101688.09;5015601;28;898;-65
2021/09/04 10:56:10;;;;;;;;;;;;;;;18.48;60.66;101690.31;5015701;28;796;-65
2021/09/04 10:58:35;;;;;;;;;;;;;;;18.52;60.70;101686.38;5015347;28;1635;-65
2021/09/04 11:01:00;;;;;;;;;;;;;;;18.52;60.47;101678.28;5015424;28;1133;-66
2021/09/04 11:03:27;;;;;;;;;;;;;;;18.55;60.46;101680.72;5016240;28;1829;-65
2021/09/04 11:05:52;;;;;;;;;;;;;;;18.59;61.10;101688.47;5015691;28;795;-66
2021/09/04 11:08:17;;;;;;;;;;;;;;;18.70;60.54;101687.53;5014284;28;1969;-66
2021/09/04 11:10:42;;;;;;;;;;;;;;;18.67;61.33;101685.09;5015858;28;879;-65
2021/09/04 11:13:08;;;;;;;;;;;;;;;18.61;60.76;101685.66;5015465;28;871;-66
2021/09/04 11:15:33;;;;;;;;;;;;;;;18.50;60.73;101683.81;5015801;28;859;-66
2021/09/04 11:17:58;;;;;;;;;;;;;;;18.47;61.18;101678.66;5015806;28;1823;-66
2021/09/04 11:20:23;;;;;;;;;;;;;;;18.52;61.28;101683.69;5015651;28;1733;-66
2021/09/04 11:22:48;;;;;;;;;;;;;;;18.62;61.02;101682.81;5015236;28;878;-66
2021/09/04 11:25:13;;;;;;;;;;;;;;;18.72;60.94;101681.03;5015193;28;847;-66
2021/09/04 11:27:40;;;;;;;;;;;;;;;18.76;60.19;101678.94;5015259;28;1866;-65
2021/09/04 11:30:05;;;;;;;;;;;;;;;18.75;60.46;101682.63;5015572;28;1949;-66
2021/09/04 11:32:32;;;;;;;;;;;;;;;18.70;61.04;101684.84;5015179;28;848;-66
2021/09/04 11:34:57;;;;;;;;;;;;;;;18.77;60.61;101679.78;5015057;28;911;-66
2021/09/04 11:37:22;;;;;;;;;;;;;;;18.67;61.21;101674.31;5015351;28;1711;-66
2021/09/04 11:39:47;;;;;;;;;;;;;;;18.63;61.05;101673.69;5015863;28;841;-66
2021/09/04 11:42:12;;;;;;;;;;;;;;;18.67;61.09;101680.56;5015426;28;977;-66
2021/09/04 11:44:37;;;;;;;;;;;;;;;18.77;60.90;101680.66;5014350;28;1595;-66
2021/09/04 11:47:05;;;;;;;;;;;;;;;18.81;60.86;101665.03;5015647;28;1765;-66
2021/09/04 11:49:30;;;;;;;;;;;;;;;18.85;60.35;101678.13;5015106;28;1949;-66
2021/09/04 11:51:55;;;;;;;;;;;;;;;18.80;61.39;101674.97;5015104;28;858;-66
2021/09/04 11:54:20;;;;;;;;;;;;;;;18.73;61.03;101679.19;5015572;28;997;-66
2021/09/04 11:56:45;;;;;;;;;;;;;;;18.73;61.38;101673.78;5015530;28;1758;-66
2021/09/04 11:59:10;;;;;;;;;;;;;;;18.67;61.40;101669.75;5015511;28;864;-66
2021/09/04 12:01:35;;;;;;;;;;;;;;;18.68;61.12;101665.22;5014490;28;1726;-66
2021/09/04 12:04:00;;;;;;;;;;;;;;;18.74;61.41;101662.00;5015309;28;1689;-66
2021/09/04 12:06:25;;;;;;;;;;;;;;;18.82;61.13;101655.91;5014959;28;1536;-66
2021/09/04 12:08:50;;;;;;;;;;;;;;;18.80;61.97;101658.78;5015043;28;1914;-66
2021/09/04 12:11:16;;;;;;;;;;;;;;;18.87;60.90;101659.94;5015349;28;1002;-66
2021/09/04 12:13:41;;;;;;;;;;;;;;;19.04;61.36;101656.63;5014661;28;1731;-66
2021/09/04 12:16:07;;;;;;;;;;;;;;;19.14;61.34;101661.22;5014843;28;1734;-66
2021/09/04 12:18:32;;;;;;;;;;;;;;;19.06;60.78;101654.66;5014626;28;1735;-66
2021/09/04 12:20:57;;;;;;;;;;;;;;;19.10;60.66;101660.63;5014576;28;1703;-66
2021/09/04 12:23:22;;;;;;;;;;;;;;;18.97;61.29;101658.16;5015309;28;954;-66
2021/09/04 12:25:47;;;;;;;;;;;;;;;18.92;61.02;101662.25;5018288;28;1130;-66
2021/09/04 12:28:12;;;;;;;;;;;;;;;19.00;61.51;101660.56;5018144;28;1893;-66
2021/09/04 12:30:37;;;;;;;;;;;;;;;18.98;61.69;101657.19;5018147;28;1708;-66
2021/09/04 12:33:02;;;;;;;;;;;;;;;19.02;61.36;101658.59;5018074;28;949;-66
2021/09/04 12:35:27;;;;;;;;;;;;;;;19.06;60.95;101659.19;5018038;28;812;-66
2021/09/04 12:37:52;;;;;;;;;;;;;;;19.03;61.20;101641.41;5016633;28;1001;-66